Main page
METAR-TAF:

METAR-TAF

Airports :

Førde Airport. Bringeland

Førde, Norway

latitude: 61-27N, longitude: 005-52E, elevation: 150 m

Current weather observation

The report was made 42 minutes ago, at 13:50 UTC
Wind 6 kt from the West/Southwest, varying between South/Southwest and West
Temperature 18°C
Humidity 49%
Pressure 1012 hPa
Visibility 10 km or more
Scattered clouds at a height of 4500 ft
Broken clouds at a height of 8500 ft

METAR: ENBL 211350Z 24006KT 200V270 9999 SCT045 BKN085 18/07 Q1012

Time: 16:32 (14:32 UTC)

Forecast

The report was made 3 hours and 32 minutes ago, at 11:00 UTC
Forecast valid from 21 at 12 UTC to 21 at 21 UTC
Wind 5 kt from the South
Visibility 10 km or more
Scattered clouds at a height of 3000 ft

TAF: ENBL 211100Z 2112/2121 18005KT 9999 SCT030

Weather observations and forecasts of more than 4000 airports (METAR and TAF reports).

The available stations are represented by yellow and red dots on the map.

Hover mouse over dot to see the name of the station.

Then click to see weather observations and forecasts.

To change the map : click on the green buttons with a black cross to zoom in, on the green button with a dash to zoom out, or on the green arrows for adjacent maps.


METAR-TAF: